sensor_id;sensor_type;location;lat;lon;timestamp;temperature;humidity
5834;DHT22;2943;48.012;10.968;2022-08-27T00:01:06;20.20;99.90
5834;DHT22;2943;48.012;10.968;2022-08-27T00:03:34;20.30;99.90
5834;DHT22;2943;48.012;10.968;2022-08-27T00:06:01;20.40;99.90
5834;DHT22;2943;48.012;10.968;2022-08-27T00:08:28;20.50;99.90
5834;DHT22;2943;48.012;10.968;2022-08-27T00:10:56;20.60;99.90
5834;DHT22;2943;48.012;10.968;2022-08-27T00:13:23;20.60;99.90
5834;DHT22;2943;48.012;10.968;2022-08-27T00:15:50;20.70;99.90
5834;DHT22;2943;48.012;10.968;2022-08-27T00:18:17;20.80;99.90
5834;DHT22;2943;48.012;10.968;2022-08-27T00:20:44;20.80;99.90
5834;DHT22;2943;48.012;10.968;2022-08-27T00:23:11;20.90;99.90
5834;DHT22;2943;48.012;10.968;2022-08-27T00:25:38;20.90;99.90
5834;DHT22;2943;48.012;10.968;2022-08-27T00:28:06;20.90;99.90
5834;DHT22;2943;48.012;10.968;2022-08-27T00:30:33;20.90;99.90
5834;DHT22;2943;48.012;10.968;2022-08-27T00:33:01;20.90;99.90
5834;DHT22;2943;48.012;10.968;2022-08-27T00:35:29;20.90;99.90
5834;DHT22;2943;48.012;10.968;2022-08-27T00:37:57;20.90;99.90
5834;DHT22;2943;48.012;10.968;2022-08-27T00:40:26;20.90;99.90
5834;DHT22;2943;48.012;10.968;2022-08-27T00:42:53;20.90;99.90
5834;DHT22;2943;48.012;10.968;2022-08-27T00:45:22;20.90;99.90
5834;DHT22;2943;48.012;10.968;2022-08-27T00:47:52;20.80;99.90
5834;DHT22;2943;48.012;10.968;2022-08-27T00:50:29;20.80;99.90
5834;DHT22;2943;48.012;10.968;2022-08-27T00:52:58;20.80;99.90
5834;DHT22;2943;48.012;10.968;2022-08-27T00:55:31;20.80;99.90
5834;DHT22;2943;48.012;10.968;2022-08-27T00:58:05;20.80;99.90
5834;DHT22;2943;48.012;10.968;2022-08-27T01:00:35;20.70;99.90
5834;DHT22;2943;48.012;10.968;2022-08-27T01:03:03;20.70;99.90
5834;DHT22;2943;48.012;10.968;2022-08-27T01:05:30;20.70;99.90
5834;DHT22;2943;48.012;10.968;2022-08-27T01:08:06;20.70;99.90
5834;DHT22;2943;48.012;10.968;2022-08-27T01:10:34;20.70;99.90
5834;DHT22;2943;48.012;10.968;2022-08-27T01:13:03;20.70;99.90
5834;DHT22;2943;48.012;10.968;2022-08-27T01:15:32;20.60;99.90
5834;DHT22;2943;48.012;10.968;2022-08-27T01:18:02;20.50;99.90
5834;DHT22;2943;48.012;10.968;2022-08-27T01:20:33;20.50;99.90
5834;DHT22;2943;48.012;10.968;2022-08-27T01:23:05;20.40;99.90
5834;DHT22;2943;48.012;10.968;2022-08-27T01:25:36;20.30;99.90
5834;DHT22;2943;48.012;10.968;2022-08-27T01:28:04;20.20;99.90
5834;DHT22;2943;48.012;10.968;2022-08-27T01:30:31;20.20;99.90
5834;DHT22;2943;48.012;10.968;2022-08-27T01:32:58;20.20;99.90
5834;DHT22;2943;48.012;10.968;2022-08-27T01:35:25;20.10;99.90
5834;DHT22;2943;48.012;10.968;2022-08-27T01:37:53;20.10;99.90
5834;DHT22;2943;48.012;10.968;2022-08-27T01:40:21;20.10;99.90
5834;DHT22;2943;48.012;10.968;2022-08-27T01:42:50;20.10;99.90
5834;DHT22;2943;48.012;10.968;2022-08-27T01:45:20;20.10;99.90
5834;DHT22;2943;48.012;10.968;2022-08-27T01:47:49;20.10;99.90
5834;DHT22;2943;48.012;10.968;2022-08-27T01:50:18;20.10;99.90
5834;DHT22;2943;48.012;10.968;2022-08-27T01:52:45;20.10;99.90
5834;DHT22;2943;48.012;10.968;2022-08-27T01:55:14;20.00;99.90
5834;DHT22;2943;48.012;10.968;2022-08-27T01:57:42;20.00;99.90
5834;DHT22;2943;48.012;10.968;2022-08-27T02:00:14;19.90;99.90
5834;DHT22;2943;48.012;10.968;2022-08-27T02:02:42;19.90;99.90
5834;DHT22;2943;48.012;10.968;2022-08-27T02:05:09;19.90;99.90
5834;DHT22;2943;48.012;10.968;2022-08-27T02:07:37;19.90;99.90
5834;DHT22;2943;48.012;10.968;2022-08-27T02:10:05;19.90;99.90
5834;DHT22;2943;48.012;10.968;2022-08-27T02:12:32;19.90;99.90
5834;DHT22;2943;48.012;10.968;2022-08-27T02:14:59;19.90;99.90
5834;DHT22;2943;48.012;10.968;2022-08-27T02:17:28;19.90;99.90
5834;DHT22;2943;48.012;10.968;2022-08-27T02:19:55;19.90;99.90
5834;DHT22;2943;48.012;10.968;2022-08-27T02:22:22;19.80;99.90
5834;DHT22;2943;48.012;10.968;2022-08-27T02:24:49;19.70;99.90
5834;DHT22;2943;48.012;10.968;2022-08-27T02:27:16;19.60;99.90
5834;DHT22;2943;48.012;10.968;2022-08-27T02:29:44;19.50;99.90
5834;DHT22;2943;48.012;10.968;2022-08-27T02:32:11;19.50;99.90
5834;DHT22;2943;48.012;10.968;2022-08-27T02:34:39;19.50;99.90
5834;DHT22;2943;48.012;10.968;2022-08-27T02:37:06;19.50;99.90
5834;DHT22;2943;48.012;10.968;2022-08-27T02:39:34;19.40;99.90
5834;DHT22;2943;48.012;10.968;2022-08-27T02:42:01;19.40;99.90
5834;DHT22;2943;48.012;10.968;2022-08-27T02:44:27;19.40;99.90
5834;DHT22;2943;48.012;10.968;2022-08-27T02:46:56;19.30;99.90
5834;DHT22;2943;48.012;10.968;2022-08-27T02:49:23;19.30;99.90
5834;DHT22;2943;48.012;10.968;2022-08-27T02:51:53;19.30;99.90
5834;DHT22;2943;48.012;10.968;2022-08-27T02:54:20;19.30;99.90
5834;DHT22;2943;48.012;10.968;2022-08-27T02:56:48;19.30;99.90
5834;DHT22;2943;48.012;10.968;2022-08-27T02:59:15;19.40;99.90
5834;DHT22;2943;48.012;10.968;2022-08-27T03:01:42;19.40;99.90
5834;DHT22;2943;48.012;10.968;2022-08-27T03:04:09;19.40;99.90
5834;DHT22;2943;48.012;10.968;2022-08-27T03:06:36;19.50;99.90
5834;DHT22;2943;48.012;10.968;2022-08-27T03:09:04;19.60;99.90
5834;DHT22;2943;48.012;10.968;2022-08-27T03:11:31;19.50;99.90
5834;DHT22;2943;48.012;10.968;2022-08-27T03:13:58;19.50;99.90
5834;DHT22;2943;48.012;10.968;2022-08-27T03:16:25;19.50;99.90
5834;DHT22;2943;48.012;10.968;2022-08-27T03:18:52;19.40;99.90
5834;DHT22;2943;48.012;10.968;2022-08-27T03:21:19;19.30;99.90
5834;DHT22;2943;48.012;10.968;2022-08-27T03:23:47;19.40;99.90
5834;DHT22;2943;48.012;10.968;2022-08-27T03:26:16;19.30;99.90
5834;DHT22;2943;48.012;10.968;2022-08-27T03:28:44;19.40;99.90
5834;DHT22;2943;48.012;10.968;2022-08-27T03:31:14;19.30;99.90
5834;DHT22;2943;48.012;10.968;2022-08-27T03:33:45;19.30;99.90
5834;DHT22;2943;48.012;10.968;2022-08-27T03:36:12;19.40;99.90
5834;DHT22;2943;48.012;10.968;2022-08-27T03:38:39;19.40;99.90
5834;DHT22;2943;48.012;10.968;2022-08-27T03:41:06;19.40;99.90
5834;DHT22;2943;48.012;10.968;2022-08-27T03:43:34;19.40;99.90
5834;DHT22;2943;48.012;10.968;2022-08-27T03:46:01;19.50;99.90
5834;DHT22;2943;48.012;10.968;2022-08-27T03:48:29;19.40;99.90
5834;DHT22;2943;48.012;10.968;2022-08-27T03:50:56;19.40;99.90
5834;DHT22;2943;48.012;10.968;2022-08-27T03:53:23;19.40;99.90
5834;DHT22;2943;48.012;10.968;2022-08-27T03:55:50;19.40;99.90
5834;DHT22;2943;48.012;10.968;2022-08-27T03:58:17;19.40;99.90
5834;DHT22;2943;48.012;10.968;2022-08-27T04:00:45;19.40;99.90
5834;DHT22;2943;48.012;10.968;2022-08-27T04:03:13;19.40;99.90
5834;DHT22;2943;48.012;10.968;2022-08-27T04:05:41;19.40;99.90
5834;DHT22;2943;48.012;10.968;2022-08-27T04:08:08;19.40;99.90
5834;DHT22;2943;48.012;10.968;2022-08-27T04:10:38;19.30;99.90
5834;DHT22;2943;48.012;10.968;2022-08-27T04:13:04;19.20;99.90
5834;DHT22;2943;48.012;10.968;2022-08-27T04:15:31;19.20;99.90
5834;DHT22;2943;48.012;10.968;2022-08-27T04:17:59;19.20;99.90
5834;DHT22;2943;48.012;10.968;2022-08-27T04:20:26;19.20;99.90
5834;DHT22;2943;48.012;10.968;2022-08-27T04:22:53;19.20;99.90
5834;DHT22;2943;48.012;10.968;2022-08-27T04:25:20;19.30;99.90
5834;DHT22;2943;48.012;10.968;2022-08-27T04:27:47;19.30;99.90
5834;DHT22;2943;48.012;10.968;2022-08-27T04:30:14;19.30;99.90
5834;DHT22;2943;48.012;10.968;2022-08-27T04:32:41;19.30;99.90
5834;DHT22;2943;48.012;10.968;2022-08-27T04:35:09;19.30;99.90
5834;DHT22;2943;48.012;10.968;2022-08-27T04:37:37;19.30;99.90
5834;DHT22;2943;48.012;10.968;2022-08-27T04:40:05;19.30;99.90
5834;DHT22;2943;48.012;10.968;2022-08-27T04:42:32;19.30;99.90
5834;DHT22;2943;48.012;10.968;2022-08-27T04:44:59;19.40;99.90
5834;DHT22;2943;48.012;10.968;2022-08-27T04:47:27;19.40;99.90
5834;DHT22;2943;48.012;10.968;2022-08-27T04:49:55;19.40;99.90
5834;DHT22;2943;48.012;10.968;2022-08-27T04:52:30;19.50;99.90
5834;DHT22;2943;48.012;10.968;2022-08-27T04:54:57;19.60;99.90
5834;DHT22;2943;48.012;10.968;2022-08-27T04:57:24;19.50;99.90
5834;DHT22;2943;48.012;10.968;2022-08-27T04:59:52;19.50;99.90
5834;DHT22;2943;48.012;10.968;2022-08-27T05:02:19;19.60;99.90
5834;DHT22;2943;48.012;10.968;2022-08-27T05:04:46;19.70;99.90
5834;DHT22;2943;48.012;10.968;2022-08-27T05:07:13;19.70;99.90
5834;DHT22;2943;48.012;10.968;2022-08-27T05:09:41;19.70;99.90
5834;DHT22;2943;48.012;10.968;2022-08-27T05:12:08;19.80;99.90
5834;DHT22;2943;48.012;10.968;2022-08-27T05:14:34;19.80;99.90
5834;DHT22;2943;48.012;10.968;2022-08-27T05:17:01;19.80;99.90
5834;DHT22;2943;48.012;10.968;2022-08-27T05:19:28;19.90;99.90
5834;DHT22;2943;48.012;10.968;2022-08-27T05:21:55;19.90;99.90
5834;DHT22;2943;48.012;10.968;2022-08-27T05:24:22;19.90;99.90
5834;DHT22;2943;48.012;10.968;2022-08-27T05:26:51;20.00;99.90
5834;DHT22;2943;48.012;10.968;2022-08-27T05:29:18;20.00;99.90
5834;DHT22;2943;48.012;10.968;2022-08-27T05:31:45;20.00;99.90
5834;DHT22;2943;48.012;10.968;2022-08-27T05:34:13;20.00;99.90
5834;DHT22;2943;48.012;10.968;2022-08-27T05:36:40;20.00;99.90
5834;DHT22;2943;48.012;10.968;2022-08-27T05:39:07;20.00;99.90
5834;DHT22;2943;48.012;10.968;2022-08-27T05:41:35;20.10;99.90
5834;DHT22;2943;48.012;10.968;2022-08-27T05:44:05;20.10;99.90
5834;DHT22;2943;48.012;10.968;2022-08-27T05:46:34;20.10;99.90
5834;DHT22;2943;48.012;10.968;2022-08-27T05:49:01;20.20;99.90
5834;DHT22;2943;48.012;10.968;2022-08-27T05:51:30;20.20;99.90
5834;DHT22;2943;48.012;10.968;2022-08-27T05:53:59;20.20;99.90
5834;DHT22;2943;48.012;10.968;2022-08-27T05:56:29;20.20;99.90
5834;DHT22;2943;48.012;10.968;2022-08-27T05:58:56;20.30;99.90
5834;DHT22;2943;48.012;10.968;2022-08-27T06:01:44;20.30;99.90
5834;DHT22;2943;48.012;10.968;2022-08-27T06:04:12;20.30;99.90
5834;DHT22;2943;48.012;10.968;2022-08-27T06:06:40;20.30;99.90
5834;DHT22;2943;48.012;10.968;2022-08-27T06:09:09;20.30;99.90
5834;DHT22;2943;48.012;10.968;2022-08-27T06:11:36;20.30;99.90
5834;DHT22;2943;48.012;10.968;2022-08-27T06:14:03;20.30;99.90
5834;DHT22;2943;48.012;10.968;2022-08-27T06:16:31;20.30;99.90
5834;DHT22;2943;48.012;10.968;2022-08-27T06:18:59;20.30;99.90
5834;DHT22;2943;48.012;10.968;2022-08-27T06:21:26;20.30;99.90
5834;DHT22;2943;48.012;10.968;2022-08-27T06:23:53;20.30;99.90
5834;DHT22;2943;48.012;10.968;2022-08-27T06:26:23;20.30;99.90
5834;DHT22;2943;48.012;10.968;2022-08-27T06:28:50;20.30;99.90
5834;DHT22;2943;48.012;10.968;2022-08-27T06:31:19;20.30;99.90
5834;DHT22;2943;48.012;10.968;2022-08-27T06:33:48;20.30;99.90
5834;DHT22;2943;48.012;10.968;2022-08-27T06:36:20;20.30;99.90
5834;DHT22;2943;48.012;10.968;2022-08-27T06:38:47;20.30;99.90
5834;DHT22;2943;48.012;10.968;2022-08-27T06:41:17;20.20;99.90
5834;DHT22;2943;48.012;10.968;2022-08-27T06:43:45;20.20;99.90
5834;DHT22;2943;48.012;10.968;2022-08-27T06:46:14;20.20;99.90
5834;DHT22;2943;48.012;10.968;2022-08-27T06:48:42;20.10;99.90
5834;DHT22;2943;48.012;10.968;2022-08-27T06:51:18;20.10;99.90
5834;DHT22;2943;48.012;10.968;2022-08-27T06:53:46;20.10;99.90
5834;DHT22;2943;48.012;10.968;2022-08-27T06:56:14;20.10;99.90
5834;DHT22;2943;48.012;10.968;2022-08-27T06:58:42;20.10;99.90
5834;DHT22;2943;48.012;10.968;2022-08-27T07:01:14;20.10;99.90
5834;DHT22;2943;48.012;10.968;2022-08-27T07:03:41;20.10;99.90
5834;DHT22;2943;48.012;10.968;2022-08-27T07:06:10;20.10;99.90
5834;DHT22;2943;48.012;10.968;2022-08-27T07:08:38;20.10;99.90
5834;DHT22;2943;48.012;10.968;2022-08-27T07:11:05;20.10;99.90
5834;DHT22;2943;48.012;10.968;2022-08-27T07:13:32;20.10;99.90
5834;DHT22;2943;48.012;10.968;2022-08-27T07:16:03;20.00;99.90
5834;DHT22;2943;48.012;10.968;2022-08-27T07:18:30;20.10;99.90
5834;DHT22;2943;48.012;10.968;2022-08-27T07:20:57;20.10;99.90
5834;DHT22;2943;48.012;10.968;2022-08-27T07:23:24;20.20;99.90
5834;DHT22;2943;48.012;10.968;2022-08-27T07:25:53;20.20;99.90
5834;DHT22;2943;48.012;10.968;2022-08-27T07:28:20;20.20;99.90
5834;DHT22;2943;48.012;10.968;2022-08-27T07:30:46;20.20;99.90
5834;DHT22;2943;48.012;10.968;2022-08-27T07:33:13;20.20;99.90
5834;DHT22;2943;48.012;10.968;2022-08-27T07:35:40;20.10;99.90
5834;DHT22;2943;48.012;10.968;2022-08-27T07:38:09;20.20;99.90
5834;DHT22;2943;48.012;10.968;2022-08-27T07:40:35;20.20;99.90
5834;DHT22;2943;48.012;10.968;2022-08-27T07:43:06;20.10;99.90
5834;DHT22;2943;48.012;10.968;2022-08-27T07:45:50;20.10;99.90
5834;DHT22;2943;48.012;10.968;2022-08-27T07:48:20;20.10;99.90
5834;DHT22;2943;48.012;10.968;2022-08-27T07:50:48;20.20;99.90
5834;DHT22;2943;48.012;10.968;2022-08-27T07:53:15;20.20;99.90
5834;DHT22;2943;48.012;10.968;2022-08-27T07:55:42;20.20;99.90
5834;DHT22;2943;48.012;10.968;2022-08-27T07:58:11;20.20;99.90
5834;DHT22;2943;48.012;10.968;2022-08-27T08:00:40;20.20;99.90
5834;DHT22;2943;48.012;10.968;2022-08-27T08:03:07;20.20;99.90
5834;DHT22;2943;48.012;10.968;2022-08-27T08:05:34;20.20;99.90
5834;DHT22;2943;48.012;10.968;2022-08-27T08:08:01;20.20;99.90
5834;DHT22;2943;48.012;10.968;2022-08-27T08:10:28;20.30;99.90
5834;DHT22;2943;48.012;10.968;2022-08-27T08:12:55;20.30;99.90
5834;DHT22;2943;48.012;10.968;2022-08-27T08:15:23;20.30;99.90
5834;DHT22;2943;48.012;10.968;2022-08-27T08:17:50;20.40;99.90
5834;DHT22;2943;48.012;10.968;2022-08-27T08:20:17;20.40;99.90
5834;DHT22;2943;48.012;10.968;2022-08-27T08:22:44;20.40;99.90
5834;DHT22;2943;48.012;10.968;2022-08-27T08:25:12;20.50;99.90
5834;DHT22;2943;48.012;10.968;2022-08-27T08:27:39;20.50;99.90
5834;DHT22;2943;48.012;10.968;2022-08-27T08:30:07;20.50;99.90
5834;DHT22;2943;48.012;10.968;2022-08-27T08:32:36;20.50;99.90
5834;DHT22;2943;48.012;10.968;2022-08-27T08:35:04;20.50;99.90
5834;DHT22;2943;48.012;10.968;2022-08-27T08:37:31;20.40;99.90
5834;DHT22;2943;48.012;10.968;2022-08-27T08:39:58;20.40;99.90
5834;DHT22;2943;48.012;10.968;2022-08-27T08:42:30;20.40;99.90
5834;DHT22;2943;48.012;10.968;2022-08-27T08:45:02;20.30;99.90
5834;DHT22;2943;48.012;10.968;2022-08-27T08:47:43;20.30;99.90
5834;DHT22;2943;48.012;10.968;2022-08-27T08:50:16;20.20;99.90
5834;DHT22;2943;48.012;10.968;2022-08-27T08:52:49;20.20;99.90
5834;DHT22;2943;48.012;10.968;2022-08-27T08:55:34;20.20;99.90
5834;DHT22;2943;48.012;10.968;2022-08-27T08:58:14;20.30;99.90
5834;DHT22;2943;48.012;10.968;2022-08-27T09:00:43;20.30;99.90
5834;DHT22;2943;48.012;10.968;2022-08-27T09:03:13;20.30;99.90
5834;DHT22;2943;48.012;10.968;2022-08-27T09:05:44;20.40;99.90
5834;DHT22;2943;48.012;10.968;2022-08-27T09:08:15;20.30;99.90
5834;DHT22;2943;48.012;10.968;2022-08-27T09:10:47;20.30;99.90
5834;DHT22;2943;48.012;10.968;2022-08-27T09:13:20;20.30;99.90
5834;DHT22;2943;48.012;10.968;2022-08-27T09:15:51;20.30;99.90
5834;DHT22;2943;48.012;10.968;2022-08-27T09:18:20;20.30;99.90
5834;DHT22;2943;48.012;10.968;2022-08-27T09:20:50;20.40;99.90
5834;DHT22;2943;48.012;10.968;2022-08-27T09:23:25;20.40;99.90
5834;DHT22;2943;48.012;10.968;2022-08-27T09:25:52;20.40;99.90
5834;DHT22;2943;48.012;10.968;2022-08-27T09:28:21;20.50;99.90
5834;DHT22;2943;48.012;10.968;2022-08-27T09:31:08;20.50;99.90
5834;DHT22;2943;48.012;10.968;2022-08-27T09:33:36;20.50;99.90
5834;DHT22;2943;48.012;10.968;2022-08-27T09:36:07;20.60;99.90
5834;DHT22;2943;48.012;10.968;2022-08-27T09:38:35;20.60;99.90
5834;DHT22;2943;48.012;10.968;2022-08-27T09:41:08;20.70;99.90
5834;DHT22;2943;48.012;10.968;2022-08-27T09:43:38;20.70;99.90
5834;DHT22;2943;48.012;10.968;2022-08-27T09:46:17;20.70;99.90
5834;DHT22;2943;48.012;10.968;2022-08-27T09:48:46;20.70;99.90
5834;DHT22;2943;48.012;10.968;2022-08-27T09:51:17;20.70;99.90
5834;DHT22;2943;48.012;10.968;2022-08-27T09:53:47;20.90;99.90
5834;DHT22;2943;48.012;10.968;2022-08-27T09:56:22;21.00;99.90
5834;DHT22;2943;48.012;10.968;2022-08-27T09:58:53;21.10;99.90
5834;DHT22;2943;48.012;10.968;2022-08-27T10:01:23;21.30;99.90
5834;DHT22;2943;48.012;10.968;2022-08-27T10:04:02;21.40;99.90
5834;DHT22;2943;48.012;10.968;2022-08-27T10:06:30;21.60;99.90
5834;DHT22;2943;48.012;10.968;2022-08-27T10:09:02;21.60;99.90
5834;DHT22;2943;48.012;10.968;2022-08-27T10:11:33;21.60;99.90
5834;DHT22;2943;48.012;10.968;2022-08-27T10:14:04;21.70;99.90
5834;DHT22;2943;48.012;10.968;2022-08-27T10:16:53;21.70;99.90
5834;DHT22;2943;48.012;10.968;2022-08-27T10:19:35;21.80;99.90
5834;DHT22;2943;48.012;10.968;2022-08-27T10:22:11;21.90;99.90
5834;DHT22;2943;48.012;10.968;2022-08-27T10:24:53;21.90;99.90
5834;DHT22;2943;48.012;10.968;2022-08-27T10:27:28;21.90;99.90
5834;DHT22;2943;48.012;10.968;2022-08-27T10:30:02;21.90;99.90
5834;DHT22;2943;48.012;10.968;2022-08-27T10:35:29;21.80;99.90
5834;DHT22;2943;48.012;10.968;2022-08-27T10:38:06;21.70;99.90
5834;DHT22;2943;48.012;10.968;2022-08-27T10:40:40;21.70;99.90
5834;DHT22;2943;48.012;10.968;2022-08-27T10:43:17;21.60;99.90
5834;DHT22;2943;48.012;10.968;2022-08-27T10:45:56;21.60;99.90
5834;DHT22;2943;48.012;10.968;2022-08-27T10:48:29;21.70;99.90
5834;DHT22;2943;48.012;10.968;2022-08-27T10:51:10;21.80;99.90
5834;DHT22;2943;48.012;10.968;2022-08-27T10:53:44;22.00;99.90
5834;DHT22;2943;48.012;10.968;2022-08-27T10:56:18;22.00;99.90
5834;DHT22;2943;48.012;10.968;2022-08-27T10:58:56;22.10;99.90
5834;DHT22;2943;48.012;10.968;2022-08-27T11:01:33;22.10;99.90
5834;DHT22;2943;48.012;10.968;2022-08-27T11:04:07;22.00;99.90
5834;DHT22;2943;48.012;10.968;2022-08-27T11:06:42;22.00;99.90
5834;DHT22;2943;48.012;10.968;2022-08-27T11:09:13;22.00;99.90
5834;DHT22;2943;48.012;10.968;2022-08-27T11:11:44;21.90;99.90
5834;DHT22;2943;48.012;10.968;2022-08-27T11:14:22;22.00;99.90
5834;DHT22;2943;48.012;10.968;2022-08-27T11:16:54;22.10;99.90
5834;DHT22;2943;48.012;10.968;2022-08-27T11:19:26;22.10;99.90
5834;DHT22;2943;48.012;10.968;2022-08-27T11:22:04;22.20;99.90
5834;DHT22;2943;48.012;10.968;2022-08-27T11:24:37;22.30;99.90
5834;DHT22;2943;48.012;10.968;2022-08-27T11:27:06;22.40;99.90
5834;DHT22;2943;48.012;10.968;2022-08-27T11:29:38;22.40;99.90
5834;DHT22;2943;48.012;10.968;2022-08-27T11:32:14;22.50;99.90
5834;DHT22;2943;48.012;10.968;2022-08-27T11:34:49;22.50;99.90
5834;DHT22;2943;48.012;10.968;2022-08-27T11:37:29;22.50;99.90
5834;DHT22;2943;48.012;10.968;2022-08-27T11:40:22;22.50;99.90
5834;DHT22;2943;48.012;10.968;2022-08-27T11:42:56;22.50;99.90
5834;DHT22;2943;48.012;10.968;2022-08-27T11:45:28;22.40;99.90
5834;DHT22;2943;48.012;10.968;2022-08-27T11:48:00;22.40;99.90
5834;DHT22;2943;48.012;10.968;2022-08-27T11:50:32;22.40;99.90
5834;DHT22;2943;48.012;10.968;2022-08-27T11:53:02;22.30;99.90
5834;DHT22;2943;48.012;10.968;2022-08-27T11:55:32;22.40;99.90
5834;DHT22;2943;48.012;10.968;2022-08-27T11:58:05;22.40;99.90
5834;DHT22;2943;48.012;10.968;2022-08-27T12:00:34;22.50;99.90
5834;DHT22;2943;48.012;10.968;2022-08-27T12:03:05;22.70;99.90
5834;DHT22;2943;48.012;10.968;2022-08-27T12:05:38;22.80;99.90
5834;DHT22;2943;48.012;10.968;2022-08-27T12:08:18;23.00;99.90
5834;DHT22;2943;48.012;10.968;2022-08-27T12:11:02;23.10;99.90
5834;DHT22;2943;48.012;10.968;2022-08-27T12:13:37;23.30;99.90
5834;DHT22;2943;48.012;10.968;2022-08-27T12:16:13;23.30;99.90
5834;DHT22;2943;48.012;10.968;2022-08-27T12:19:05;23.30;99.90
5834;DHT22;2943;48.012;10.968;2022-08-27T12:21:46;23.30;99.90
5834;DHT22;2943;48.012;10.968;2022-08-27T12:24:38;23.30;99.90
5834;DHT22;2943;48.012;10.968;2022-08-27T12:27:24;23.30;99.90
5834;DHT22;2943;48.012;10.968;2022-08-27T12:29:55;23.40;99.90
5834;DHT22;2943;48.012;10.968;2022-08-27T12:32:25;23.40;99.90
5834;DHT22;2943;48.012;10.968;2022-08-27T12:34:59;23.40;99.90
5834;DHT22;2943;48.012;10.968;2022-08-27T12:37:29;23.40;99.90
5834;DHT22;2943;48.012;10.968;2022-08-27T12:40:00;23.50;99.90
5834;DHT22;2943;48.012;10.968;2022-08-27T12:42:29;23.50;99.90
5834;DHT22;2943;48.012;10.968;2022-08-27T12:44:56;23.60;99.90
5834;DHT22;2943;48.012;10.968;2022-08-27T12:47:24;23.70;99.90
5834;DHT22;2943;48.012;10.968;2022-08-27T12:49:55;23.80;99.90
5834;DHT22;2943;48.012;10.968;2022-08-27T12:55:29;23.90;99.90
5834;DHT22;2943;48.012;10.968;2022-08-27T12:58:06;23.90;99.90
5834;DHT22;2943;48.012;10.968;2022-08-27T13:01:07;23.90;99.90
5834;DHT22;2943;48.012;10.968;2022-08-27T13:03:51;23.90;99.90
5834;DHT22;2943;48.012;10.968;2022-08-27T13:06:20;23.90;99.90
5834;DHT22;2943;48.012;10.968;2022-08-27T13:08:52;23.80;99.90
5834;DHT22;2943;48.012;10.968;2022-08-27T13:11:24;23.80;99.90
5834;DHT22;2943;48.012;10.968;2022-08-27T13:13:51;23.80;99.90
5834;DHT22;2943;48.012;10.968;2022-08-27T13:16:19;23.70;99.90
5834;DHT22;2943;48.012;10.968;2022-08-27T13:18:47;23.70;99.90
5834;DHT22;2943;48.012;10.968;2022-08-27T13:21:21;23.60;99.90
5834;DHT22;2943;48.012;10.968;2022-08-27T13:23:54;23.60;99.90
5834;DHT22;2943;48.012;10.968;2022-08-27T13:26:24;23.60;99.90
5834;DHT22;2943;48.012;10.968;2022-08-27T13:28:54;23.50;99.90
5834;DHT22;2943;48.012;10.968;2022-08-27T13:31:22;23.50;99.90
5834;DHT22;2943;48.012;10.968;2022-08-27T13:33:53;23.60;99.90
5834;DHT22;2943;48.012;10.968;2022-08-27T13:36:27;23.80;99.90
5834;DHT22;2943;48.012;10.968;2022-08-27T13:38:55;23.80;99.90
5834;DHT22;2943;48.012;10.968;2022-08-27T13:41:30;23.80;99.90
5834;DHT22;2943;48.012;10.968;2022-08-27T13:44:05;23.80;99.90
5834;DHT22;2943;48.012;10.968;2022-08-27T13:46:40;23.90;99.90
5834;DHT22;2943;48.012;10.968;2022-08-27T13:49:14;24.00;99.90
5834;DHT22;2943;48.012;10.968;2022-08-27T13:51:42;24.10;99.90
5834;DHT22;2943;48.012;10.968;2022-08-27T13:54:12;24.20;99.90
5834;DHT22;2943;48.012;10.968;2022-08-27T13:56:53;24.30;99.90
5834;DHT22;2943;48.012;10.968;2022-08-27T13:59:23;24.40;99.90
5834;DHT22;2943;48.012;10.968;2022-08-27T14:01:56;24.50;99.90
5834;DHT22;2943;48.012;10.968;2022-08-27T14:04:25;24.60;99.90
5834;DHT22;2943;48.012;10.968;2022-08-27T14:06:53;24.50;99.90
5834;DHT22;2943;48.012;10.968;2022-08-27T14:09:23;24.40;99.90
5834;DHT22;2943;48.012;10.968;2022-08-27T14:11:59;24.40;99.90
5834;DHT22;2943;48.012;10.968;2022-08-27T14:14:27;24.30;99.90
5834;DHT22;2943;48.012;10.968;2022-08-27T14:16:57;24.20;99.90
5834;DHT22;2943;48.012;10.968;2022-08-27T14:19:26;24.20;99.90
5834;DHT22;2943;48.012;10.968;2022-08-27T14:21:54;24.20;99.90
5834;DHT22;2943;48.012;10.968;2022-08-27T14:24:22;24.00;99.90
5834;DHT22;2943;48.012;10.968;2022-08-27T14:26:49;23.80;99.90
5834;DHT22;2943;48.012;10.968;2022-08-27T14:29:20;23.70;99.90
5834;DHT22;2943;48.012;10.968;2022-08-27T14:31:49;23.50;99.90
5834;DHT22;2943;48.012;10.968;2022-08-27T14:34:16;23.60;99.90
5834;DHT22;2943;48.012;10.968;2022-08-27T14:36:43;23.70;99.90
5834;DHT22;2943;48.012;10.968;2022-08-27T14:39:10;23.80;99.90
5834;DHT22;2943;48.012;10.968;2022-08-27T14:41:38;23.90;99.90
5834;DHT22;2943;48.012;10.968;2022-08-27T14:44:05;23.90;99.90
5834;DHT22;2943;48.012;10.968;2022-08-27T14:46:34;24.00;99.90
5834;DHT22;2943;48.012;10.968;2022-08-27T14:49:07;24.00;99.90
5834;DHT22;2943;48.012;10.968;2022-08-27T14:51:39;24.10;99.90
5834;DHT22;2943;48.012;10.968;2022-08-27T14:54:19;24.10;99.90
5834;DHT22;2943;48.012;10.968;2022-08-27T14:56:46;24.20;99.90
5834;DHT22;2943;48.012;10.968;2022-08-27T14:59:13;24.30;99.90
5834;DHT22;2943;48.012;10.968;2022-08-27T15:01:41;24.30;99.90
5834;DHT22;2943;48.012;10.968;2022-08-27T15:04:09;24.30;99.90
5834;DHT22;2943;48.012;10.968;2022-08-27T15:06:36;24.20;99.90
5834;DHT22;2943;48.012;10.968;2022-08-27T15:09:03;24.30;99.90
5834;DHT22;2943;48.012;10.968;2022-08-27T15:11:32;24.20;99.90
5834;DHT22;2943;48.012;10.968;2022-08-27T15:14:02;24.10;99.90
5834;DHT22;2943;48.012;10.968;2022-08-27T15:16:31;24.00;99.90
5834;DHT22;2943;48.012;10.968;2022-08-27T15:19:22;23.90;99.90
5834;DHT22;2943;48.012;10.968;2022-08-27T15:21:50;23.90;99.90
5834;DHT22;2943;48.012;10.968;2022-08-27T15:24:23;23.80;99.90
5834;DHT22;2943;48.012;10.968;2022-08-27T15:26:53;23.70;99.90
5834;DHT22;2943;48.012;10.968;2022-08-27T15:29:22;23.60;99.90
5834;DHT22;2943;48.012;10.968;2022-08-27T15:31:54;23.50;99.90
5834;DHT22;2943;48.012;10.968;2022-08-27T15:34:23;23.60;99.90
5834;DHT22;2943;48.012;10.968;2022-08-27T15:36:55;23.80;99.90
5834;DHT22;2943;48.012;10.968;2022-08-27T15:39:27;23.90;99.90
5834;DHT22;2943;48.012;10.968;2022-08-27T15:41:58;23.90;99.90
5834;DHT22;2943;48.012;10.968;2022-08-27T15:44:33;23.90;99.90
5834;DHT22;2943;48.012;10.968;2022-08-27T15:47:01;23.80;99.90
5834;DHT22;2943;48.012;10.968;2022-08-27T15:49:32;23.70;99.90
5834;DHT22;2943;48.012;10.968;2022-08-27T15:52:01;23.60;99.90
5834;DHT22;2943;48.012;10.968;2022-08-27T15:54:56;23.50;99.90
5834;DHT22;2943;48.012;10.968;2022-08-27T15:58:04;23.40;99.90
5834;DHT22;2943;48.012;10.968;2022-08-27T16:00:59;23.30;99.90
5834;DHT22;2943;48.012;10.968;2022-08-27T16:04:00;23.20;99.90
5834;DHT22;2943;48.012;10.968;2022-08-27T16:06:37;23.10;99.90
5834;DHT22;2943;48.012;10.968;2022-08-27T16:09:12;23.00;99.90
5834;DHT22;2943;48.012;10.968;2022-08-27T16:11:52;22.90;99.90